Time;durP1;ratioP1;P1;durP2;ratioP2;P2;SDS_P1;SDS_P2;PMS_P1;PMS_P2;Temp;Humidity;BMP_temperature;BMP_pressure;BME280_temperature;BME280_humidity;BME280_pressure;Samples;Min_cycle;Max_cycle;Signal;HPM_P1;HPM_P2
2022/05/15 00:01:33;;;;;;;7.63;3.25;;;;;;;13.57;59.38;100540.31;10462800;28;20040;-79
2022/05/15 00:06:35;;;;;;;8.52;3.45;;;;;;;13.66;59.05;100550.56;10549080;28;20044;-79
2022/05/15 00:11:36;;;;;;;6.90;2.97;;;;;;;13.34;60.53;100549.94;10568847;28;20043;-79
2022/05/15 00:16:38;;;;;;;7.53;3.20;;;;;;;13.27;60.82;100545.75;10587024;28;20051;-78
2022/05/15 00:21:40;;;;;;;6.82;3.45;;;;;;;13.38;60.87;100553.34;10501426;28;20111;-79
2022/05/15 00:26:42;;;;;;;7.72;3.80;;;;;;;13.48;60.33;100551.22;10579118;28;20048;-78
2022/05/15 00:31:43;;;;;;;6.68;2.65;;;;;;;13.06;62.21;100550.00;10578645;28;20043;-78
2022/05/15 00:36:45;;;;;;;5.50;2.83;;;;;;;12.94;63.16;100550.41;10575212;28;20051;-78
2022/05/15 00:41:46;;;;;;;6.43;2.70;;;;;;;13.17;62.34;100548.75;10578639;28;20028;-79
2022/05/15 00:46:48;;;;;;;5.43;2.65;;;;;;;13.09;62.15;100543.72;10499875;28;20103;-79
2022/05/15 00:51:56;;;;;;;6.03;2.63;;;;;;;12.72;64.01;100542.31;10467902;28;20131;-78
2022/05/15 00:57:15;;;;;;;6.95;2.95;;;;;;;12.65;64.50;100548.69;10448497;28;20055;-78
2022/05/15 01:02:18;;;;;;;7.97;3.10;;;;;;;12.48;64.95;100538.69;10554170;28;20139;-78
2022/05/15 01:07:20;;;;;;;8.20;3.28;;;;;;;12.35;65.78;100539.97;10452808;28;20051;-80
2022/05/15 01:12:22;;;;;;;7.63;3.42;;;;;;;12.57;64.30;100542.78;10466114;28;20405;-78
2022/05/15 01:17:24;;;;;;;6.53;3.17;;;;;;;12.52;64.29;100542.94;10454706;28;20112;-80
2022/05/15 01:22:25;;;;;;;7.22;3.25;;;;;;;12.27;66.05;100547.28;10488456;28;20052;-79
2022/05/15 01:27:29;;;;;;;5.25;2.85;;;;;;;12.12;66.59;100552.06;10480252;28;20050;-79
2022/05/15 01:32:31;;;;;;;6.13;3.17;;;;;;;12.16;65.80;100549.38;10455161;28;20064;-79
2022/05/15 01:37:36;;;;;;;10.35;3.50;;;;;;;11.91;68.04;100547.47;10469806;28;20036;-79
2022/05/15 01:42:37;;;;;;;7.93;3.60;;;;;;;11.79;68.16;100551.28;10468717;28;20040;-79
2022/05/15 01:47:39;;;;;;;6.55;3.10;;;;;;;11.75;68.08;100556.66;10453640;28;20044;-79
2022/05/15 01:52:43;;;;;;;7.10;3.85;;;;;;;11.80;67.58;100549.50;10466902;28;20044;-79
2022/05/15 01:57:45;;;;;;;5.82;2.95;;;;;;;11.81;67.71;100553.84;10555594;28;20032;-79
2022/05/15 02:02:49;;;;;;;5.85;2.63;;;;;;;11.96;67.31;100552.59;10466240;28;20056;-79
2022/05/15 02:07:50;;;;;;;5.68;2.50;;;;;;;11.95;67.66;100549.06;10493539;22;20059;-83
2022/05/15 02:12:52;;;;;;;5.68;3.30;;;;;;;11.77;68.90;100546.94;10477280;28;20040;-83
2022/05/15 02:17:54;;;;;;;5.90;2.72;;;;;;;11.65;69.85;100550.81;10501679;28;20031;-83
2022/05/15 02:22:55;;;;;;;6.30;3.42;;;;;;;11.65;70.25;100553.44;10490383;28;20063;-83
2022/05/15 02:27:57;;;;;;;8.15;3.33;;;;;;;11.70;69.87;100545.41;10499480;28;20043;-83
2022/05/15 02:32:59;;;;;;;5.82;3.45;;;;;;;11.75;69.56;100559.31;10474982;28;20070;-83
2022/05/15 02:38:02;;;;;;;6.32;3.45;;;;;;;11.65;70.38;100553.44;10472647;28;20044;-83
2022/05/15 02:43:04;;;;;;;8.68;3.92;;;;;;;11.66;70.67;100554.31;10487959;28;20040;-84
2022/05/15 02:51:03;;;;;;;8.68;4.30;;;;;;;11.45;71.45;100550.47;10489943;28;20080;-83
2022/05/15 02:53:28;;;;;;;6.63;4.20;;;;;;;11.43;70.54;100553.16;10507453;28;20112;-83
2022/05/15 02:58:30;;;;;;;7.82;4.60;;;;;;;11.29;71.17;100555.31;10470535;28;20481;-83
2022/05/15 03:03:32;;;;;;;6.95;4.28;;;;;;;11.24;72.12;100565.06;10485079;28;20052;-83
2022/05/15 03:08:37;;;;;;;7.43;4.68;;;;;;;11.50;71.19;100565.22;10491678;28;20047;-83
2022/05/15 03:13:41;;;;;;;9.55;4.68;;;;;;;11.71;69.97;100571.69;10483702;28;20054;-83
2022/05/15 03:18:46;;;;;;;6.93;3.85;;;;;;;11.34;71.29;100577.97;10498231;28;20040;-83
2022/05/15 03:23:48;;;;;;;9.30;4.65;;;;;;;11.40;71.29;100574.28;10565253;28;20040;-83
2022/05/15 03:28:50;;;;;;;7.75;4.22;;;;;;;11.01;72.94;100576.19;10488645;28;20515;-83
2022/05/15 03:33:52;;;;;;;8.07;4.05;;;;;;;10.89;73.97;100579.09;10487649;28;20047;-83
2022/05/15 03:38:54;;;;;;;6.18;4.43;;;;;;;10.97;73.50;100585.91;10492566;28;20062;-83
2022/05/15 03:43:55;;;;;;;8.23;4.30;;;;;;;10.76;75.22;100582.06;10546989;28;20050;-83
2022/05/15 03:48:58;;;;;;;7.53;4.45;;;;;;;10.76;75.19;100589.09;10489731;28;20055;-84
2022/05/15 03:54:00;;;;;;;10.63;4.95;;;;;;;11.16;72.89;100588.09;10490056;28;20052;-82
2022/05/15 03:59:01;;;;;;;10.15;4.50;;;;;;;11.04;73.12;100589.25;10470183;28;20411;-83
2022/05/15 04:04:03;;;;;;;7.68;4.57;;;;;;;10.77;75.19;100594.28;10486159;28;20427;-83
2022/05/15 04:09:06;;;;;;;7.20;5.13;;;;;;;10.78;75.71;100595.16;10567771;28;20059;-82
2022/05/15 04:14:08;;;;;;;10.10;5.15;;;;;;;10.75;76.26;100603.97;10564403;28;20040;-83
2022/05/15 04:19:11;;;;;;;7.05;5.05;;;;;;;10.86;75.26;100601.09;10470348;28;20047;-83
2022/05/15 04:24:15;;;;;;;8.02;4.38;;;;;;;11.06;74.38;100603.22;10485825;28;20059;-83
2022/05/15 04:29:17;;;;;;;6.53;3.40;;;;;;;11.05;74.85;100607.63;10570130;28;20115;-83
2022/05/15 04:34:18;;;;;;;7.15;3.85;;;;;;;11.19;74.33;100604.66;10483435;28;20040;-83
2022/05/15 04:39:20;;;;;;;11.27;6.88;;;;;;;11.16;75.47;100609.16;10484353;28;20051;-83
2022/05/15 04:44:22;;;;;;;6.75;5.28;;;;;;;11.29;75.27;100613.22;10482424;28;20072;-83
2022/05/15 04:49:23;;;;;;;9.63;5.68;;;;;;;11.48;74.67;100611.81;10482073;28;20044;-83
2022/05/15 04:54:25;;;;;;;9.35;6.03;;;;;;;11.71;73.19;100613.81;10481784;28;20562;-84
2022/05/15 04:59:27;;;;;;;8.57;6.22;;;;;;;11.69;73.09;100612.16;10481996;28;20073;-84
2022/05/15 05:04:30;;;;;;;11.38;6.80;;;;;;;12.00;72.30;100614.84;10489245;28;20036;-83
2022/05/15 05:09:33;;;;;;;13.75;5.72;;;;;;;12.19;71.48;100621.31;10466909;28;20044;-83
2022/05/15 05:14:35;;;;;;;10.93;6.18;;;;;;;12.37;70.91;100633.06;10480979;28;20138;-83
2022/05/15 05:19:36;;;;;;;9.80;5.82;;;;;;;12.48;69.84;100640.66;10566289;28;20040;-83
2022/05/15 05:24:38;;;;;;;7.00;5.38;;;;;;;12.49;70.78;100638.00;10475175;28;20051;-82
2022/05/15 05:29:40;;;;;;;7.65;6.32;;;;;;;12.60;69.59;100641.16;10584740;28;20073;-83
2022/05/15 05:34:41;;;;;;;7.72;5.20;;;;;;;12.71;69.27;100640.84;10564332;28;20048;-83
2022/05/15 05:39:46;;;;;;;9.88;5.80;;;;;;;12.59;70.10;100644.72;10461821;28;20093;-84
2022/05/15 05:44:47;;;;;;;9.65;6.32;;;;;;;13.21;68.45;100648.06;10478924;28;20561;-83
2022/05/15 05:49:49;;;;;;;6.53;5.15;;;;;;;13.73;66.35;100654.25;10485113;28;20131;-84
2022/05/15 05:54:52;;;;;;;9.90;5.68;;;;;;;14.16;64.37;100650.91;10485601;28;20047;-83
2022/05/15 05:59:53;;;;;;;9.32;5.68;;;;;;;14.14;63.75;100661.56;10551914;28;20040;-83
2022/05/15 06:04:55;;;;;;;12.68;5.13;;;;;;;14.27;63.91;100658.47;10483428;28;20048;-82
2022/05/15 06:09:56;;;;;;;11.18;5.45;;;;;;;14.84;62.18;100663.34;10399194;28;1093533;-83
2022/05/15 06:14:58;;;;;;;7.05;4.68;;;;;;;15.53;59.84;100652.56;10485992;28;20113;-82
2022/05/15 06:20:06;;;;;;;7.65;5.28;;;;;;;15.87;57.80;100653.81;10485409;28;20066;-83
2022/05/15 06:25:08;;;;;;;7.55;4.65;;;;;;;16.57;56.54;100645.31;10485949;28;20117;-83
2022/05/15 06:30:12;;;;;;;8.27;4.30;;;;;;;16.61;54.91;100646.91;10498390;28;20062;-83
2022/05/15 06:35:15;;;;;;;8.80;3.78;;;;;;;17.22;53.42;100647.53;10499405;28;20059;-83
2022/05/15 06:40:17;;;;;;;6.80;3.65;;;;;;;17.60;53.09;100651.81;10493435;28;20024;-83
2022/05/15 06:45:19;;;;;;;10.10;3.80;;;;;;;17.12;53.22;100649.81;10475724;28;20048;-83
2022/05/15 06:50:21;;;;;;;8.73;4.15;;;;;;;17.48;52.33;100651.56;10473824;28;20198;-83
2022/05/15 06:55:24;;;;;;;7.95;3.60;;;;;;;17.61;51.67;100645.53;10577121;28;20069;-83
2022/05/15 07:00:28;;;;;;;5.07;3.05;;;;;;;17.68;51.69;100654.06;10488526;28;20048;-84
2022/05/15 07:05:31;;;;;;;7.60;3.38;;;;;;;18.30;49.93;100657.06;10489829;28;20051;-84
2022/05/15 07:10:32;;;;;;;7.95;3.45;;;;;;;18.87;49.10;100649.50;10486314;28;20135;-83
2022/05/15 07:15:36;;;;;;;9.38;3.67;;;;;;;18.47;48.50;100654.34;10486331;28;20055;-83
2022/05/15 07:20:38;;;;;;;7.22;3.42;;;;;;;18.56;49.47;100655.66;10583238;28;20052;-83
2022/05/15 07:25:39;;;;;;;6.72;3.05;;;;;;;18.42;49.43;100651.09;10507399;28;20040;-83
2022/05/15 07:30:41;;;;;;;6.85;2.83;;;;;;;19.49;45.88;100652.16;10503896;28;20044;-83
2022/05/15 07:35:43;;;;;;;6.82;3.13;;;;;;;18.64;47.81;100653.44;10503401;28;20048;-83
2022/05/15 07:40:44;;;;;;;6.30;2.50;;;;;;;18.29;50.21;100656.22;10478698;28;20044;-83
2022/05/15 07:45:46;;;;;;;8.55;2.85;;;;;;;18.68;48.21;100660.28;10579991;28;20044;-83
2022/05/15 07:50:48;;;;;;;6.57;2.95;;;;;;;18.40;46.65;100659.13;10490606;28;20177;-82
2022/05/15 07:55:50;;;;;;;7.55;3.00;;;;;;;18.77;46.18;100653.59;10575087;28;20100;-83
2022/05/15 08:00:54;;;;;;;9.82;3.63;;;;;;;19.62;46.21;100650.50;10507375;28;20046;-82
2022/05/15 08:11:15;;;;;;;5.13;2.42;;;;;;;19.89;44.41;100646.19;10579982;22;20070;-79
2022/05/15 08:16:17;;;;;;;6.60;2.88;;;;;;;19.77;45.07;100648.72;10543581;28;20044;-78
2022/05/15 08:26:44;;;;;;;5.63;2.17;;;;;;;19.75;43.94;100645.31;10541440;28;20050;-77
2022/05/15 08:31:46;;;;;;;4.57;2.03;;;;;;;19.53;41.31;100654.56;10542107;28;20052;-78
2022/05/15 08:36:49;;;;;;;8.02;2.22;;;;;;;19.75;40.53;100642.66;10543423;28;20040;-78
2022/05/15 08:42:06;;;;;;;5.43;1.70;;;;;;;20.00;42.35;100645.50;10541684;28;20050;-77
2022/05/15 08:47:43;;;;;;;4.50;2.50;;;;;;;20.37;42.73;100651.25;10456905;28;20036;-79
2022/05/15 08:53:02;;;;;;;5.47;2.20;;;;;;;20.76;40.21;100645.25;10541626;28;20044;-80
2022/05/15 08:58:08;;;;;;;7.65;3.00;;;;;;;20.60;43.02;100636.47;10541208;28;20046;-77
2022/05/15 09:03:20;;;;;;;8.20;3.13;;;;;;;20.80;41.48;100637.84;10542848;28;20044;-77
2022/05/15 09:08:45;;;;;;;6.97;2.10;;;;;;;21.34;41.61;100637.91;10456529;28;20392;-77
2022/05/15 09:13:54;;;;;;;4.32;2.72;;;;;;;21.81;39.99;100633.81;10542054;28;20036;-79
2022/05/15 09:19:06;;;;;;;7.15;3.10;;;;;;;21.25;40.69;100633.13;10438438;28;20040;-79
2022/05/15 09:24:34;;;;;;;5.43;2.20;;;;;;;20.86;41.42;100629.47;10445633;28;20076;-79
2022/05/15 09:29:35;;;;;;;8.90;2.85;;;;;;;20.60;42.23;100626.66;10463508;28;20044;-77
2022/05/15 09:34:37;;;;;;;8.50;2.60;;;;;;;21.52;41.20;100617.94;10548988;28;20063;-78
2022/05/15 09:39:43;;;;;;;5.30;2.38;;;;;;;21.58;40.63;100620.19;10461707;28;20046;-77
2022/05/15 09:44:45;;;;;;;6.30;2.45;;;;;;;21.38;39.33;100626.00;10549096;28;20052;-78
2022/05/15 09:49:47;;;;;;;6.10;2.13;;;;;;;21.46;39.13;100622.84;10547927;28;20397;-77
2022/05/15 09:54:50;;;;;;;6.43;2.28;;;;;;;20.86;39.86;100616.94;10550180;28;20044;-79
2022/05/15 10:00:03;;;;;;;6.80;2.63;;;;;;;21.31;40.36;100614.00;10551922;28;20043;-79
2022/05/15 10:05:21;;;;;;;5.55;2.30;;;;;;;21.20;40.30;100612.03;10556183;28;20417;-78
2022/05/15 10:10:28;;;;;;;5.45;1.95;;;;;;;22.52;36.29;100613.63;10463905;28;20043;-78
2022/05/15 10:15:38;;;;;;;6.40;2.33;;;;;;;22.23;38.87;100610.38;10548429;28;20110;-78
2022/05/15 10:20:43;;;;;;;6.03;2.70;;;;;;;22.54;36.44;100606.34;10474192;28;20135;-79
2022/05/15 10:25:47;;;;;;;7.15;2.90;;;;;;;22.06;38.62;100616.91;10555742;28;20417;-79
2022/05/15 10:31:05;;;;;;;5.30;2.30;;;;;;;22.90;37.11;100594.78;10463683;28;20449;-78
2022/05/15 10:36:27;;;;;;;9.18;3.22;;;;;;;23.00;37.78;100589.59;10547059;28;20039;-77
2022/05/15 10:41:39;;;;;;;7.45;2.58;;;;;;;22.54;37.22;100598.31;10546439;28;20490;-78
2022/05/15 10:46:51;;;;;;;6.70;3.13;;;;;;;22.70;37.07;100573.91;10548574;28;20093;-78
2022/05/15 10:51:58;;;;;;;5.97;2.83;;;;;;;24.19;35.32;100574.13;10552263;28;20051;-78
2022/05/15 10:57:22;;;;;;;6.47;4.53;;;;;;;23.41;35.65;100575.72;10551177;28;20040;-79
2022/05/15 11:02:43;;;;;;;5.30;2.42;;;;;;;23.06;35.50;100573.03;10549170;28;20039;-79
2022/05/15 11:08:12;;;;;;;9.13;2.83;;;;;;;23.38;34.54;100567.91;10549682;28;20040;-79
2022/05/15 11:13:22;;;;;;;6.80;2.50;;;;;;;23.30;34.81;100562.28;10461453;28;20100;-80
2022/05/15 11:18:52;;;;;;;7.03;2.33;;;;;;;24.32;32.93;100551.53;10461555;28;20087;-78
2022/05/15 11:24:00;;;;;;;5.03;2.63;;;;;;;23.99;33.86;100552.41;10547089;28;20048;-78
2022/05/15 11:29:11;;;;;;;4.22;2.03;;;;;;;23.75;34.46;100544.47;10445189;28;20075;-79
2022/05/15 11:34:12;;;;;;;5.18;2.08;;;;;;;24.38;33.76;100544.81;10462369;28;20044;-79
2022/05/15 11:39:14;;;;;;;6.00;2.15;;;;;;;24.35;34.02;100539.69;10549713;28;20047;-79
2022/05/15 11:44:18;;;;;;;5.97;2.05;;;;;;;23.67;35.86;100534.31;10547962;28;20048;-78
2022/05/15 11:49:30;;;;;;;6.13;2.00;;;;;;;24.31;34.62;100530.16;10466309;28;20094;-78
2022/05/15 11:54:35;;;;;;;3.83;1.90;;;;;;;23.95;34.65;100534.84;10556943;28;20059;-78
2022/05/15 11:59:47;;;;;;;5.20;2.33;;;;;;;24.49;35.56;100522.47;10555846;28;20040;-78
2022/05/15 12:04:48;;;;;;;4.28;2.15;;;;;;;24.21;32.46;100523.81;10560210;28;20489;-78
2022/05/15 12:09:52;;;;;;;4.82;2.17;;;;;;;24.79;33.73;100522.63;10569659;28;20428;-77
2022/05/15 12:15:03;;;;;;;4.78;2.05;;;;;;;24.36;33.14;100517.22;10575892;28;20059;-78
2022/05/15 12:20:15;;;;;;;4.50;2.15;;;;;;;24.71;33.71;100498.22;10575575;28;20044;-77
2022/05/15 12:25:18;;;;;;;4.97;2.30;;;;;;;24.62;32.33;100502.50;10495381;28;20048;-78
2022/05/15 12:30:24;;;;;;;4.97;1.77;;;;;;;24.45;33.25;100492.31;10571959;28;20070;-78
2022/05/15 12:35:36;;;;;;;5.28;1.70;;;;;;;23.58;34.13;100489.41;10568583;28;20054;-77
2022/05/15 12:40:52;;;;;;;4.55;1.73;;;;;;;23.48;34.27;100480.38;10567373;28;20044;-77
2022/05/15 12:45:55;;;;;;;9.77;2.33;;;;;;;23.56;33.96;100475.25;10567916;28;20067;-79
2022/05/15 12:51:06;;;;;;;4.35;1.58;;;;;;;23.37;33.67;100469.59;10562676;28;20100;-78
2022/05/15 12:56:11;;;;;;;6.82;2.03;;;;;;;23.30;35.20;100460.34;10558116;28;20044;-77
2022/05/15 13:01:13;;;;;;;3.80;1.65;;;;;;;23.25;34.01;100460.72;10568975;28;20042;-77
2022/05/15 13:06:18;;;;;;;5.55;1.98;;;;;;;24.48;33.45;100461.63;10459552;28;20078;-78
2022/05/15 13:11:42;;;;;;;3.70;1.70;;;;;;;24.67;31.70;100454.59;10568846;28;20082;-78
2022/05/15 13:16:48;;;;;;;3.88;1.50;;;;;;;24.41;32.20;100450.53;10481947;28;20105;-79
2022/05/15 13:21:53;;;;;;;2.97;1.58;;;;;;;24.23;32.66;100447.50;10469019;28;20044;-77
2022/05/15 13:26:56;;;;;;;5.53;2.03;;;;;;;23.98;33.13;100442.44;10546105;28;20413;-77
2022/05/15 13:31:58;;;;;;;3.78;1.60;;;;;;;23.76;33.56;100436.13;10455942;28;20081;-79
2022/05/15 13:37:25;;;;;;;4.78;1.50;;;;;;;23.01;33.08;100446.50;10540107;28;20044;-77
2022/05/15 13:48:06;;;;;;;5.07;1.85;;;;;;;23.28;32.49;100433.63;10458337;28;20044;-78
2022/05/15 13:53:23;;;;;;;4.07;1.48;;;;;;;22.98;33.21;100436.03;10467188;28;20097;-79
2022/05/15 13:58:44;;;;;;;8.25;1.52;;;;;;;23.24;34.81;100418.78;10547931;28;20107;-78
2022/05/15 14:03:47;;;;;;;2.75;1.50;;;;;;;23.58;33.19;100419.63;10463263;28;20043;-78
2022/05/15 14:09:05;;;;;;;2.47;1.10;;;;;;;23.62;31.85;100412.19;10589145;22;20090;-82
2022/05/15 14:14:12;;;;;;;4.75;1.13;;;;;;;22.99;35.08;100417.16;10490508;28;20055;-83
2022/05/15 14:19:18;;;;;;;4.03;1.23;;;;;;;23.27;32.79;100406.94;10504204;28;20172;-83
2022/05/15 14:24:20;;;;;;;2.00;1.15;;;;;;;23.41;32.04;100399.50;10590595;28;20098;-83
2022/05/15 14:29:22;;;;;;;3.00;1.10;;;;;;;23.93;31.73;100397.16;10511246;28;20036;-83
2022/05/15 14:34:23;;;;;;;3.90;1.25;;;;;;;23.37;31.59;100394.50;10596430;28;20069;-82
2022/05/15 14:39:25;;;;;;;3.88;1.10;;;;;;;23.56;30.97;100386.72;10481315;28;20048;-82
2022/05/15 14:44:27;;;;;;;3.53;1.27;;;;;;;23.64;31.87;100386.97;10493841;28;20099;-82
2022/05/15 14:49:33;;;;;;;4.65;1.20;;;;;;;23.61;31.20;100378.28;10501230;28;20048;-82
2022/05/15 14:54:36;;;;;;;3.83;1.25;;;;;;;23.25;32.24;100374.03;10557043;28;20040;-83
2022/05/15 14:59:43;;;;;;;5.15;1.27;;;;;;;23.85;31.92;100383.50;10573408;28;20054;-82
2022/05/15 15:04:44;;;;;;;3.70;1.00;;;;;;;23.23;32.21;100376.81;10482629;28;20044;-83
2022/05/15 15:09:46;;;;;;;3.92;0.98;;;;;;;23.40;32.16;100372.81;10566699;28;20036;-82
2022/05/15 15:14:48;;;;;;;3.58;1.30;;;;;;;23.49;31.62;100363.16;10554830;28;20048;-83
2022/05/15 15:19:49;;;;;;;2.33;1.42;;;;;;;23.64;31.61;100357.47;10593050;28;20057;-82
2022/05/15 15:24:51;;;;;;;5.45;1.25;;;;;;;23.97;31.41;100349.44;10577021;28;20044;-82
2022/05/15 15:29:53;;;;;;;2.25;0.90;;;;;;;23.75;31.31;100342.31;10499445;28;20048;-82
2022/05/15 15:35:12;;;;;;;2.55;1.15;;;;;;;23.93;31.53;100346.16;10585663;28;20052;-83
2022/05/15 15:40:17;;;;;;;12.15;1.63;;;;;;;24.46;30.97;100340.84;10493640;28;20040;-83
2022/05/15 15:45:19;;;;;;;2.78;0.90;;;;;;;24.80;29.43;100343.34;10570422;28;20040;-82
2022/05/15 15:50:23;;;;;;;2.90;1.10;;;;;;;24.27;30.18;100337.97;10486730;28;20082;-84
2022/05/15 15:55:30;;;;;;;3.90;1.10;;;;;;;25.12;28.88;100325.25;10571808;28;20048;-82
2022/05/15 16:00:32;;;;;;;2.33;0.90;;;;;;;24.40;29.65;100338.69;10486118;28;20036;-83
2022/05/15 16:05:35;;;;;;;2.05;0.80;;;;;;;24.16;29.80;100325.44;10485478;28;20147;-83
2022/05/15 16:10:39;;;;;;;3.90;1.40;;;;;;;24.42;28.70;100317.91;10566758;28;20040;-84
2022/05/15 16:15:45;;;;;;;4.30;1.45;;;;;;;24.09;29.55;100317.06;10480708;28;20068;-84
2022/05/15 16:20:51;;;;;;;1.85;0.90;;;;;;;23.49;30.52;100305.00;10460182;28;20047;-82
2022/05/15 16:25:54;;;;;;;2.45;1.00;;;;;;;23.49;29.86;100304.13;10479062;28;20075;-83
2022/05/15 16:31:05;;;;;;;2.78;0.95;;;;;;;22.47;32.10;100307.72;10464298;28;20040;-84
2022/05/15 16:36:07;;;;;;;3.28;1.10;;;;;;;22.18;33.11;100302.78;10479527;28;20070;-82
2022/05/15 16:41:09;;;;;;;2.95;1.15;;;;;;;22.22;32.98;100303.38;10477915;28;20085;-83
2022/05/15 16:46:11;;;;;;;4.18;1.35;;;;;;;22.03;33.25;100309.25;10476390;28;20432;-84
2022/05/15 16:51:13;;;;;;;3.42;1.30;;;;;;;21.75;33.30;100305.13;10562854;28;20044;-84
2022/05/15 16:56:16;;;;;;;3.10;0.98;;;;;;;21.70;33.35;100307.28;10458380;28;20052;-83
2022/05/15 17:01:17;;;;;;;2.92;2.60;;;;;;;21.98;33.10;100301.56;10538212;28;20078;-84
2022/05/15 17:06:25;;;;;;;2.30;1.33;;;;;;;21.86;33.63;100307.84;10471876;28;20044;-83
2022/05/15 17:11:26;;;;;;;2.97;1.02;;;;;;;21.64;33.60;100306.75;10455414;28;20040;-83
2022/05/15 17:16:28;;;;;;;3.30;1.30;;;;;;;21.18;34.92;100301.19;10559987;28;20106;-83
2022/05/15 17:21:29;;;;;;;3.85;1.60;;;;;;;21.55;34.48;100299.41;10472738;28;20127;-83
2022/05/15 17:26:31;;;;;;;2.83;1.30;;;;;;;21.46;34.63;100301.91;10559656;28;20040;-83
2022/05/15 17:36:54;;;;;;;3.42;1.63;;;;;;;21.10;35.37;100301.72;10473454;28;20056;-83
2022/05/15 17:41:55;;;;;;;3.22;1.85;;;;;;;21.13;36.21;100306.88;10561097;28;20090;-84
2022/05/15 17:46:57;;;;;;;4.07;1.65;;;;;;;20.90;36.30;100311.16;10488489;28;20048;-83
2022/05/15 17:51:59;;;;;;;4.38;2.45;;;;;;;20.94;36.14;100311.81;10507520;28;20048;-82
2022/05/15 17:57:00;;;;;;;2.30;1.35;;;;;;;20.68;36.52;100313.63;10481086;28;20048;-84
2022/05/15 18:02:03;;;;;;;6.72;1.20;;;;;;;20.33;37.49;100321.34;10461514;28;20040;-84
2022/05/15 18:07:05;;;;;;;2.50;1.20;;;;;;;20.09;37.66;100323.84;10462611;28;20097;-83
2022/05/15 18:12:09;;;;;;;3.00;1.20;;;;;;;20.02;37.72;100326.06;10567434;28;20044;-83
2022/05/15 18:17:11;;;;;;;2.10;1.23;;;;;;;20.17;37.62;100313.50;10543468;28;20052;-83
2022/05/15 18:22:13;;;;;;;6.35;2.38;;;;;;;20.15;37.90;100326.13;10479070;28;20044;-83
2022/05/15 18:27:17;;;;;;;2.28;1.13;;;;;;;20.15;37.56;100331.47;10480906;28;20044;-84
2022/05/15 18:32:20;;;;;;;3.20;2.00;;;;;;;19.73;39.48;100325.31;10463433;28;20040;-83
2022/05/15 18:37:33;;;;;;;4.88;2.85;;;;;;;19.81;38.05;100331.00;10494771;28;20050;-83
2022/05/15 18:42:50;;;;;;;2.63;1.30;;;;;;;19.90;37.64;100335.75;10492025;28;20127;-83
2022/05/15 18:47:57;;;;;;;4.22;2.63;;;;;;;19.73;38.11;100340.47;10471908;28;20052;-83
2022/05/15 18:58:35;;;;;;;2.67;1.70;;;;;;;19.50;37.97;100339.25;10458364;28;20068;-84
2022/05/15 19:03:40;;;;;;;2.07;1.17;;;;;;;19.55;37.26;100347.81;10475439;28;20083;-83
2022/05/15 19:08:51;;;;;;;1.92;1.02;;;;;;;19.38;38.16;100351.53;10496886;28;20457;-84
2022/05/15 19:13:53;;;;;;;2.85;1.10;;;;;;;19.21;37.93;100347.25;10459582;28;20053;-84
2022/05/15 19:18:55;;;;;;;2.22;1.10;;;;;;;18.85;39.83;100345.06;10460410;28;20067;-83
2022/05/15 19:24:11;;;;;;;3.05;1.75;;;;;;;18.70;40.13;100351.34;10497674;28;20048;-83
2022/05/15 19:29:31;;;;;;;2.70;1.50;;;;;;;18.44;39.89;100355.53;10556102;28;20058;-83
2022/05/15 19:34:37;;;;;;;2.70;1.42;;;;;;;18.88;40.52;100366.19;10474827;28;20459;-83
2022/05/15 19:39:42;;;;;;;7.10;5.53;;;;;;;18.61;41.75;100363.38;10459987;28;20039;-84
2022/05/15 19:44:47;;;;;;;7.22;5.38;;;;;;;18.27;42.95;100367.16;10565994;28;20098;-84
2022/05/15 19:49:55;;;;;;;4.50;2.65;;;;;;;18.14;44.45;100373.19;10547244;28;20040;-83
2022/05/15 19:54:56;;;;;;;4.40;2.00;;;;;;;17.65;45.31;100367.97;10508910;28;20023;-83
2022/05/15 19:59:58;;;;;;;2.67;1.98;;;;;;;17.21;46.92;100370.41;10507214;28;20088;-83
2022/05/15 20:16:07;;;;;;;4.22;2.78;;;;;;;16.88;48.57;100373.91;10568640;28;20036;-83
2022/05/15 20:21:10;;;;;;;4.80;3.00;;;;;;;16.51;50.14;100376.69;10503356;28;20059;-83
2022/05/15 20:26:15;;;;;;;6.13;3.25;;;;;;;16.59;50.07;100379.84;10492443;28;20047;-85
2022/05/15 20:31:23;;;;;;;4.75;2.80;;;;;;;16.44;50.31;100377.97;10566892;28;20032;-84
2022/05/15 20:36:25;;;;;;;4.53;2.05;;;;;;;16.35;50.96;100374.84;10485711;28;20058;-84
2022/05/15 20:41:27;;;;;;;6.93;2.00;;;;;;;16.32;50.50;100374.13;10497200;28;20644;-84
2022/05/15 20:46:29;;;;;;;3.53;2.08;;;;;;;16.24;50.84;100384.25;10474641;28;20431;-84
2022/05/15 20:51:30;;;;;;;4.43;2.05;;;;;;;16.01;51.70;100378.28;10562731;28;20044;-83
2022/05/15 20:56:32;;;;;;;4.50;2.30;;;;;;;15.68;52.63;100374.63;10477336;28;20060;-83
2022/05/15 21:01:34;;;;;;;7.32;2.47;;;;;;;15.45;53.63;100378.31;10474245;28;20489;-83
2022/05/15 21:06:37;;;;;;;4.57;1.90;;;;;;;15.46;53.35;100367.66;10561412;28;20048;-83
2022/05/15 21:11:38;;;;;;;3.45;2.10;;;;;;;15.08;55.28;100379.97;10475253;28;20096;-83
2022/05/15 21:16:41;;;;;;;4.75;2.03;;;;;;;15.30;54.76;100380.72;10477640;28;20056;-83
2022/05/15 21:21:42;;;;;;;4.03;2.30;;;;;;;15.23;54.41;100381.06;10497187;28;20048;-83
2022/05/15 21:26:44;;;;;;;3.00;1.70;;;;;;;14.99;55.86;100381.25;10579613;28;20047;-83
2022/05/15 21:31:45;;;;;;;4.53;2.13;;;;;;;15.13;55.20;100381.50;10492815;28;20119;-83
2022/05/15 21:36:47;;;;;;;4.78;2.10;;;;;;;15.16;55.30;100367.25;10585176;28;20069;-83
2022/05/15 21:47:09;;;;;;;6.40;4.50;;;;;;;14.59;56.54;100356.53;10573864;28;20044;-83
2022/05/15 21:52:11;;;;;;;5.20;3.10;;;;;;;14.34;57.58;100364.66;10482709;28;20044;-84
2022/05/15 21:57:12;;;;;;;4.22;3.53;;;;;;;14.19;59.05;100361.75;10480472;28;20070;-84
2022/05/15 22:02:14;;;;;;;6.88;4.75;;;;;;;14.58;57.06;100364.56;10569236;28;20463;-84
2022/05/15 22:07:21;;;;;;;8.60;7.80;;;;;;;14.39;57.50;100364.44;10568912;28;20498;-83
2022/05/15 22:12:23;;;;;;;5.68;5.05;;;;;;;14.29;57.83;100365.75;10565884;28;20048;-83
2022/05/15 22:17:31;;;;;;;5.68;4.93;;;;;;;14.06;58.57;100364.03;10566373;28;20044;-83
2022/05/15 22:22:32;;;;;;;3.80;3.33;;;;;;;14.12;58.79;100375.25;10464554;28;20043;-83
2022/05/15 22:27:35;;;;;;;6.10;4.20;;;;;;;13.95;59.45;100366.28;10480477;28;20043;-83
2022/05/15 22:32:37;;;;;;;5.68;4.32;;;;;;;13.74;60.05;100378.56;10568142;28;20032;-83
2022/05/15 22:37:39;;;;;;;9.15;4.80;;;;;;;13.44;62.08;100375.31;10494580;28;20044;-82
2022/05/15 22:42:40;;;;;;;3.58;3.28;;;;;;;13.45;61.79;100375.25;10595829;28;20056;-82
2022/05/15 22:47:42;;;;;;;4.20;3.35;;;;;;;13.88;60.57;100376.22;10509545;28;20537;-83
2022/05/15 22:52:43;;;;;;;4.35;3.53;;;;;;;13.70;60.79;100376.97;10505494;28;20048;-83
2022/05/15 22:57:45;;;;;;;6.35;2.95;;;;;;;13.56;61.05;100378.34;10591546;28;20096;-83
2022/05/15 23:02:47;;;;;;;5.20;2.30;;;;;;;13.16;62.36;100380.75;10580460;28;20051;-84
2022/05/15 23:07:48;;;;;;;3.90;2.22;;;;;;;13.09;63.00;100372.19;10578604;28;20047;-85
2022/05/15 23:12:50;;;;;;;3.42;2.08;;;;;;;13.10;63.05;100385.34;10488053;28;20040;-83
2022/05/15 23:17:53;;;;;;;3.63;2.00;;;;;;;13.20;62.75;100388.50;10573635;28;20040;-84
2022/05/15 23:22:55;;;;;;;2.78;2.25;;;;;;;12.91;63.91;100380.75;10486035;28;20036;-83
2022/05/15 23:27:58;;;;;;;4.32;2.60;;;;;;;13.12;63.33;100386.13;10570989;28;20047;-83
2022/05/15 23:33:00;;;;;;;5.03;3.15;;;;;;;12.77;63.98;100392.66;10569620;28;20058;-83
2022/05/15 23:38:03;;;;;;;5.45;3.40;;;;;;;12.49;65.20;100384.00;10482464;28;20052;-83
2022/05/15 23:43:04;;;;;;;5.10;3.00;;;;;;;12.91;63.82;100386.03;10464407;28;20104;-83
2022/05/15 23:48:06;;;;;;;3.97;2.88;;;;;;;12.57;64.89;100392.47;10481604;28;20052;-83
2022/05/15 23:53:08;;;;;;;6.13;3.33;;;;;;;12.69;64.79;100393.84;10567508;28;20093;-83
2022/05/15 23:58:10;;;;;;;3.40;2.72;;;;;;;12.31;66.35;100399.53;10463064;28;20044;-83
